Portada
METAR-TAF:

METAR-TAF

Aeropuertos :

Aeropuerto de Melilla

Melilla, España

latitud: 35-17N, longitud: 002-57W, altitud: 47 m

Observación

El informe se hizo hace 22 minutos, a las 12:30 UTC
Viento 4 kt del este, variando entre norte-noreste y este-sureste
Temperatura 15°C
Humedad 63%
Presión 1030 hPa
Visibilidad 10 km o más
Escasas nubes a una altura de 3000 ft

METAR: GEML 031230Z 08004KT 030V120 9999 FEW030 15/08 Q1030

Hora: 13:52 (12:52 UTC)

Pronóstico

El informe se hizo hace 1 hora y 52 minutos, a las 11:00 UTC
Pronóstico válido del 03 a las 12 UTC al 04 a las 12 UTC
Viento 8 kt del este
Visibilidad 10 km o más
Escasas nubes a una altura de 3000 ft

TAF: GEML 031100Z 0312/0412 09008KT 9999 FEW030 TX17/0313Z TN09/0406Z

Observaciones y pronósticos meteorológicos de más de 4000 aeropuertos (mensajes METAR y TAF).

Los puntos amarillos y rojos representan las estaciones disponibles.

Ponga el ratón en el punto deseado para ver el nombre de la estación.

Haga clic para ver las observaciones y los pronósticos meteorológicos.

Para cambiar el mapa : haga clic en los botones verdes con una cruz de color negro para hacer un zoom, en el botón verde con un guión para alejar o en las flechas verdes para mapas adyacentes.


METAR-TAF: